createdAt,value
2024-04-22T00:01:55.691Z,92.60
2024-04-22T00:04:28.082Z,92.00
2024-04-22T00:06:58.070Z,91.60
2024-04-22T00:09:36.759Z,91.80
2024-04-22T00:12:04.343Z,91.90
2024-04-22T00:14:36.167Z,94.20
2024-04-22T00:17:03.516Z,94.10
2024-04-22T00:19:38.943Z,91.70
2024-04-22T00:22:13.652Z,92.00
2024-04-22T00:24:43.463Z,92.20
2024-04-22T00:27:12.935Z,92.30
2024-04-22T00:29:45.476Z,92.90
2024-04-22T00:32:12.645Z,93.00
2024-04-22T00:34:45.111Z,92.90
2024-04-22T00:37:21.068Z,93.20
2024-04-22T00:39:48.917Z,93.80
2024-04-22T00:42:31.002Z,93.50
2024-04-22T00:45:01.331Z,96.30
2024-04-22T00:47:31.113Z,97.10
2024-04-22T00:50:13.672Z,94.10
2024-04-22T00:52:41.693Z,94.10
2024-04-22T00:55:12.873Z,93.60
2024-04-22T00:57:41.569Z,93.90
2024-04-22T01:00:17.317Z,94.50
2024-04-22T01:02:44.614Z,95.00
2024-04-22T01:05:29.405Z,96.10
2024-04-22T01:08:04.022Z,94.80
2024-04-22T01:10:35.341Z,95.80
2024-04-22T01:13:08.691Z,98.20
2024-04-22T01:15:43.509Z,99.30
2024-04-22T01:18:19.590Z,94.60
2024-04-22T01:20:58.128Z,93.20
2024-04-22T01:23:33.044Z,93.50
2024-04-22T01:26:05.737Z,93.50
2024-04-22T01:28:42.098Z,93.70
2024-04-22T01:31:11.865Z,93.90
2024-04-22T01:33:39.879Z,94.20
2024-04-22T01:36:12.569Z,94.80
2024-04-22T01:38:42.267Z,96.20
2024-04-22T01:41:11.969Z,99.90
2024-04-22T01:43:41.896Z,99.90
2024-04-22T01:46:17.664Z,99.90
2024-04-22T01:48:44.785Z,97.50
2024-04-22T01:51:14.635Z,94.40
2024-04-22T01:53:44.332Z,94.00
2024-04-22T01:56:14.182Z,96.70
2024-04-22T01:58:45.499Z,95.50
2024-04-22T02:01:15.326Z,93.90
2024-04-22T02:03:45.506Z,93.50
2024-04-22T02:06:15.254Z,94.10
2024-04-22T02:08:44.985Z,97.50
2024-04-22T02:11:14.832Z,98.90
2024-04-22T02:13:42.097Z,94.90
2024-04-22T02:16:17.750Z,94.50
2024-04-22T02:18:45.645Z,94.40
2024-04-22T02:21:27.998Z,94.50
2024-04-22T02:23:57.727Z,94.60
2024-04-22T02:26:35.892Z,94.60
2024-04-22T02:29:05.391Z,94.80
2024-04-22T02:31:38.184Z,95.00
2024-04-22T02:34:05.400Z,98.10
2024-04-22T02:36:37.523Z,97.00
2024-04-22T02:39:22.094Z,95.50
2024-04-22T02:41:51.759Z,97.80
2024-04-22T02:44:24.104Z,99.90
2024-04-22T02:46:53.947Z,98.80
2024-04-22T02:49:29.377Z,97.60
2024-04-22T02:52:05.306Z,95.60
2024-04-22T02:54:37.620Z,95.40
2024-04-22T02:57:10.430Z,96.30
2024-04-22T02:59:37.523Z,97.90
2024-04-22T03:02:13.049Z,95.30
2024-04-22T03:04:40.266Z,95.00
2024-04-22T03:07:10.894Z,94.10
2024-04-22T03:09:44.338Z,94.40
2024-04-22T03:12:14.074Z,94.80
2024-04-22T03:14:41.357Z,94.50
2024-04-22T03:17:13.879Z,95.40
2024-04-22T03:19:47.026Z,95.30
2024-04-22T03:22:16.722Z,97.50
2024-04-22T03:24:47.344Z,99.50
2024-04-22T03:27:19.512Z,96.30
2024-04-22T03:30:01.499Z,95.00
2024-04-22T03:32:34.418Z,95.90
2024-04-22T03:35:01.562Z,95.30
2024-04-22T03:37:31.401Z,95.20
2024-04-22T03:40:07.445Z,97.30
2024-04-22T03:42:37.270Z,95.80
2024-04-22T03:45:07.284Z,95.40
2024-04-22T03:47:58.824Z,97.50
2024-04-22T03:50:28.533Z,97.80
2024-04-22T03:53:04.548Z,95.30
2024-04-22T03:55:43.264Z,95.40
2024-04-22T03:58:13.055Z,95.80
2024-04-22T04:00:45.895Z,96.60
2024-04-22T04:03:21.829Z,96.60
2024-04-22T04:06:12.496Z,95.60
2024-04-22T04:08:39.567Z,96.50
2024-04-22T04:11:19.602Z,96.80
2024-04-22T04:13:50.741Z,99.10
2024-04-22T04:16:32.523Z,98.60
2024-04-22T04:19:02.337Z,96.40
2024-04-22T04:21:34.867Z,96.60
2024-04-22T04:24:14.886Z,97.80
2024-04-22T04:26:44.640Z,99.40
2024-04-22T04:29:14.367Z,96.50
2024-04-22T04:31:47.516Z,98.30
2024-04-22T04:34:17.510Z,99.20
2024-04-22T04:36:47.493Z,96.70
2024-04-22T04:39:17.185Z,96.00
2024-04-22T04:41:49.596Z,96.70
2024-04-22T04:44:24.223Z,96.90
2024-04-22T04:46:53.176Z,97.40
2024-04-22T04:49:38.223Z,98.80
2024-04-22T04:52:08.246Z,99.90
2024-04-22T04:54:40.966Z,98.70
2024-04-22T04:57:16.279Z,97.30
2024-04-22T04:59:45.982Z,99.40
2024-04-22T05:02:31.413Z,97.90
2024-04-22T05:05:03.882Z,96.90
2024-04-22T05:07:32.522Z,96.40
2024-04-22T05:10:08.778Z,97.30
2024-04-22T05:12:41.306Z,97.30
2024-04-22T05:15:13.844Z,98.70
2024-04-22T05:17:40.997Z,99.90
2024-04-22T05:20:16.789Z,99.90
2024-04-22T05:22:44.258Z,98.20
2024-04-22T05:25:19.738Z,97.10
2024-04-22T05:27:49.507Z,97.80
2024-04-22T05:30:25.425Z,98.70
2024-04-22T05:32:52.576Z,99.30
2024-04-22T05:35:38.191Z,96.60
2024-04-22T05:38:08.101Z,97.10
2024-04-22T05:40:41.495Z,97.70
2024-04-22T05:43:16.739Z,96.60
2024-04-22T05:45:49.501Z,95.90
2024-04-22T05:48:19.275Z,96.30
2024-04-22T05:51:11.470Z,97.40
2024-04-22T05:53:47.387Z,96.60
2024-04-22T05:56:17.079Z,99.70
2024-04-22T05:58:46.891Z,99.80
2024-04-22T06:01:16.647Z,96.50
2024-04-22T06:03:47.238Z,97.70
2024-04-22T06:06:16.982Z,98.30
2024-04-22T06:08:44.110Z,98.60
2024-04-22T06:11:16.800Z,96.40
2024-04-22T06:13:46.666Z,97.90
2024-04-22T06:16:19.663Z,95.70
2024-04-22T06:18:46.782Z,95.30
2024-04-22T06:21:20.148Z,94.60
2024-04-22T06:23:47.300Z,94.30
2024-04-22T06:26:17.363Z,94.00
2024-04-22T06:28:49.143Z,95.50
2024-04-22T06:31:19.008Z,94.20
2024-04-22T06:33:46.134Z,94.90
2024-04-22T06:36:16.523Z,95.70
2024-04-22T06:38:51.192Z,94.60
2024-04-22T06:41:20.879Z,94.50
2024-04-22T06:43:50.679Z,94.80
2024-04-22T06:46:23.204Z,95.30
2024-04-22T06:48:53.508Z,95.00
2024-04-22T06:51:32.460Z,95.60
2024-04-22T06:54:02.498Z,94.60
2024-04-22T06:56:35.105Z,94.90
2024-04-22T06:59:04.879Z,95.70
2024-04-22T07:01:41.321Z,94.40
2024-04-22T07:04:14.392Z,93.60
2024-04-22T07:06:44.146Z,93.80
2024-04-22T07:09:11.770Z,93.20
2024-04-22T07:11:47.185Z,93.00
2024-04-22T07:14:29.868Z,93.10
2024-04-22T07:16:58.298Z,93.50
2024-04-22T07:19:28.233Z,93.20
2024-04-22T07:21:56.696Z,94.40
2024-04-22T07:24:28.704Z,94.40
2024-04-22T07:26:56.113Z,93.70
2024-04-22T07:29:29.236Z,92.30
2024-04-22T07:31:59.949Z,93.20
2024-04-22T07:34:30.320Z,93.60
2024-04-22T07:37:16.843Z,93.30
2024-04-22T07:39:54.900Z,96.10
2024-04-22T07:42:22.033Z,95.70
2024-04-22T07:44:57.148Z,91.40
2024-04-22T07:47:24.258Z,93.20
2024-04-22T07:49:53.952Z,91.30
2024-04-22T07:52:21.594Z,90.50
2024-04-22T07:54:51.832Z,91.80
2024-04-22T07:57:19.483Z,91.50
2024-04-22T07:59:49.762Z,91.50
2024-04-22T08:02:20.876Z,87.00
2024-04-22T08:04:52.076Z,92.40
2024-04-22T08:07:20.544Z,93.70
2024-04-22T08:09:53.404Z,89.10
2024-04-22T08:12:20.706Z,90.20
2024-04-22T08:14:57.959Z,88.10
2024-04-22T08:17:30.772Z,94.30
2024-04-22T08:20:00.602Z,89.00
2024-04-22T08:22:27.755Z,91.30
2024-04-22T08:25:04.051Z,89.40
2024-04-22T08:27:31.298Z,88.70
2024-04-22T08:30:01.911Z,85.90
2024-04-22T08:32:31.770Z,82.50
2024-04-22T08:35:14.578Z,89.30
2024-04-22T08:37:42.203Z,87.10
2024-04-22T08:40:26.093Z,83.30
2024-04-22T08:42:54.537Z,86.00
2024-04-22T08:48:08.846Z,82.50
2024-04-22T08:50:42.014Z,81.90
2024-04-22T08:53:10.574Z,84.50
2024-04-22T08:55:40.852Z,83.60
2024-04-22T08:58:11.263Z,82.50
2024-04-22T09:00:41.099Z,81.30
2024-04-22T09:03:15.159Z,83.20
2024-04-22T09:05:48.205Z,82.50
2024-04-22T09:08:16.852Z,85.20
2024-04-22T09:11:22.525Z,83.20
2024-04-22T09:13:44.443Z,86.90
2024-04-22T09:16:19.037Z,84.70
2024-04-22T09:18:49.561Z,85.20
2024-04-22T09:21:20.395Z,80.70
2024-04-22T09:23:47.502Z,84.50
2024-04-22T09:26:17.270Z,80.20
2024-04-22T09:28:46.721Z,77.10
2024-04-22T09:31:21.237Z,78.50
2024-04-22T09:33:52.110Z,78.10
2024-04-22T09:36:24.733Z,82.50
2024-04-22T09:38:52.882Z,81.20
2024-04-22T09:41:23.537Z,81.40
2024-04-22T09:43:57.043Z,89.10
2024-04-22T09:46:35.121Z,82.00
2024-04-22T09:49:09.731Z,81.10
2024-04-22T09:51:41.246Z,75.00
2024-04-22T09:54:14.607Z,76.10
2024-04-22T09:56:44.722Z,74.40
2024-04-22T09:59:13.292Z,76.20
2024-04-22T10:01:45.631Z,75.10
2024-04-22T10:04:15.926Z,78.30
2024-04-22T10:06:46.029Z,80.20
2024-04-22T10:09:17.115Z,78.90
2024-04-22T10:11:50.642Z,79.30
2024-04-22T10:14:22.140Z,79.20
2024-04-22T10:17:00.248Z,78.80
2024-04-22T10:19:32.299Z,79.50
2024-04-22T10:22:10.513Z,80.20
2024-04-22T10:24:44.027Z,84.00
2024-04-22T10:27:19.769Z,84.20
2024-04-22T10:29:46.885Z,85.40
2024-04-22T10:32:19.807Z,85.90
2024-04-22T10:34:52.479Z,85.90
2024-04-22T10:37:25.450Z,86.50
2024-04-22T10:39:55.455Z,86.50
2024-04-22T10:42:29.281Z,84.30
2024-04-22T10:45:05.324Z,84.90
2024-04-22T10:47:35.920Z,84.60
2024-04-22T10:50:19.768Z,85.30
2024-04-22T10:52:49.424Z,86.20
2024-04-22T10:55:19.794Z,88.50
2024-04-22T10:58:01.291Z,87.50
2024-04-22T11:00:39.080Z,87.50
2024-04-22T11:03:09.929Z,86.90
2024-04-22T11:05:48.275Z,86.10
2024-04-22T11:08:16.814Z,87.40
2024-04-22T11:10:46.819Z,92.80
2024-04-22T11:13:17.412Z,87.90
2024-04-22T11:15:47.146Z,87.40
2024-04-22T11:18:18.629Z,85.90
2024-04-22T11:20:51.014Z,89.50
2024-04-22T11:23:18.258Z,86.50
2024-04-22T11:25:48.130Z,88.20
2024-04-22T11:28:15.509Z,86.30
2024-04-22T11:30:53.132Z,87.20
2024-04-22T11:33:21.976Z,87.10
2024-04-22T11:36:03.249Z,90.90
2024-04-22T11:38:33.717Z,92.40
2024-04-22T11:41:12.871Z,85.30
2024-04-22T11:44:03.090Z,84.30
2024-04-22T11:49:37.452Z,90.80
2024-04-22T11:52:10.197Z,82.80
2024-04-22T11:54:37.381Z,84.40
2024-04-22T11:57:16.216Z,81.00
2024-04-22T11:59:51.855Z,84.60
2024-04-22T12:02:21.601Z,80.10
2024-04-22T12:04:48.795Z,79.50
2024-04-22T12:07:24.378Z,82.40
2024-04-22T12:10:00.671Z,78.80
2024-04-22T12:12:30.563Z,80.70
2024-04-22T12:15:02.823Z,90.50
2024-04-22T12:17:34.843Z,92.20
2024-04-22T12:20:04.253Z,92.00
2024-04-22T12:22:36.715Z,87.30
2024-04-22T12:25:09.667Z,91.30
2024-04-22T12:27:43.120Z,88.10
2024-04-22T12:30:10.865Z,87.30
2024-04-22T12:32:41.727Z,90.40
2024-04-22T12:35:08.982Z,90.50
2024-04-22T12:37:42.068Z,89.20
2024-04-22T12:40:09.838Z,89.80
2024-04-22T12:42:39.646Z,90.10
2024-04-22T12:45:10.304Z,86.70
2024-04-22T12:47:56.437Z,85.90
2024-04-22T12:50:42.232Z,86.40
2024-04-22T12:53:15.118Z,85.80
2024-04-22T12:55:57.815Z,85.60
2024-04-22T12:58:27.646Z,86.00
2024-04-22T13:00:58.131Z,86.20
2024-04-22T13:03:30.853Z,91.40
2024-04-22T13:06:02.593Z,91.00
2024-04-22T13:08:37.750Z,91.90
2024-04-22T13:11:08.042Z,91.90
2024-04-22T13:13:40.186Z,91.50
2024-04-22T13:16:10.326Z,91.30
2024-04-22T13:18:40.156Z,90.70
2024-04-22T13:21:07.261Z,91.00
2024-04-22T13:23:39.588Z,91.10
2024-04-22T13:26:07.263Z,90.20
2024-04-22T13:28:37.014Z,90.30
2024-04-22T13:31:05.397Z,91.00
2024-04-22T13:33:38.004Z,91.10
2024-04-22T13:36:06.355Z,91.10
2024-04-22T13:38:36.135Z,91.10
2024-04-22T13:41:06.036Z,90.50
2024-04-22T13:43:39.089Z,91.00
2024-04-22T13:46:06.241Z,90.90
2024-04-22T13:48:42.743Z,90.90
2024-04-22T13:51:12.987Z,90.00
2024-04-22T13:53:48.062Z,90.70
2024-04-22T13:56:18.107Z,90.30
2024-04-22T13:58:53.007Z,90.40
2024-04-22T14:01:20.164Z,90.70
2024-04-22T14:03:53.513Z,90.80
2024-04-22T14:06:23.466Z,90.80
2024-04-22T14:08:53.245Z,90.80
2024-04-22T14:11:26.109Z,90.60
2024-04-22T14:13:58.703Z,90.30
2024-04-22T14:16:28.395Z,90.30
2024-04-22T14:18:58.126Z,90.20
2024-04-22T14:21:31.239Z,90.40
2024-04-22T14:24:00.955Z,90.40
2024-04-22T14:26:30.690Z,90.40
2024-04-22T14:29:07.098Z,90.40
2024-04-22T14:31:43.081Z,90.30
2024-04-22T14:34:15.604Z,88.90
2024-04-22T14:36:45.908Z,90.20
2024-04-22T14:39:15.682Z,90.50
2024-04-22T14:41:45.411Z,90.40
2024-04-22T14:44:15.141Z,90.50
2024-04-22T14:46:42.310Z,90.10
2024-04-22T14:49:17.378Z,89.10
2024-04-22T14:51:45.777Z,90.00
2024-04-22T14:54:15.539Z,89.90
2024-04-22T14:56:47.525Z,87.70
2024-04-22T14:59:17.217Z,89.40
2024-04-22T15:01:44.328Z,90.10
2024-04-22T15:04:19.633Z,90.30
2024-04-22T15:06:47.924Z,87.80
2024-04-22T15:09:21.336Z,89.80
2024-04-22T15:11:51.060Z,85.30
2024-04-22T15:14:25.641Z,90.60
2024-04-22T15:16:53.116Z,86.70
2024-04-22T15:19:22.904Z,90.70
2024-04-22T15:21:50.024Z,88.30
2024-04-22T15:24:19.729Z,80.00
2024-04-22T15:26:46.850Z,84.70
2024-04-22T15:29:25.396Z,86.90
2024-04-22T15:31:58.522Z,87.40
2024-04-22T15:34:28.366Z,83.80
2024-04-22T15:36:55.473Z,80.80
2024-04-22T15:39:28.772Z,87.90
2024-04-22T15:41:55.894Z,85.50
2024-04-22T15:44:28.322Z,89.80
2024-04-22T15:46:55.555Z,85.10
2024-04-22T15:49:28.100Z,83.70
2024-04-22T15:54:38.827Z,83.40
2024-04-22T15:57:06.262Z,89.50
2024-04-22T15:59:48.294Z,82.20
2024-04-22T16:02:23.556Z,82.10
2024-04-22T16:04:56.416Z,82.00
2024-04-22T16:07:23.642Z,90.30
2024-04-22T16:09:59.656Z,82.50
2024-04-22T16:12:26.756Z,84.40
2024-04-22T16:15:01.706Z,84.30
2024-04-22T16:17:35.047Z,83.90
2024-04-22T16:20:04.797Z,84.10
2024-04-22T16:22:33.560Z,84.80
2024-04-22T16:25:06.174Z,85.50
2024-04-22T16:27:42.380Z,84.20
2024-04-22T16:30:24.240Z,82.80
2024-04-22T16:32:56.397Z,80.90
2024-04-22T16:35:32.702Z,81.80
2024-04-22T16:38:00.266Z,82.40
2024-04-22T16:40:32.314Z,85.10
2024-04-22T16:43:05.184Z,85.90
2024-04-22T16:45:37.776Z,86.30
2024-04-22T16:48:05.659Z,83.90
2024-04-22T16:50:39.164Z,83.50
2024-04-22T16:53:09.079Z,83.70
2024-04-22T16:55:41.140Z,85.80
2024-04-22T16:58:11.158Z,86.10
2024-04-22T17:00:43.754Z,88.80
2024-04-22T17:03:10.852Z,89.00
2024-04-22T17:05:40.522Z,84.50
2024-04-22T17:08:10.380Z,86.00
2024-04-22T17:10:47.214Z,83.20
2024-04-22T17:13:19.499Z,81.50
2024-04-22T17:15:51.842Z,83.00
2024-04-22T17:18:31.026Z,84.90
2024-04-22T17:21:15.731Z,82.20
2024-04-22T17:23:45.217Z,87.80
2024-04-22T17:26:14.911Z,90.10
2024-04-22T17:28:42.026Z,85.40
2024-04-22T17:31:17.179Z,91.60
2024-04-22T17:33:44.433Z,88.50
2024-04-22T17:36:16.962Z,89.00
2024-04-22T17:38:44.038Z,84.50
2024-04-22T17:41:19.852Z,83.30
2024-04-22T17:43:52.732Z,83.20
2024-04-22T17:46:33.094Z,79.60
2024-04-22T17:49:03.046Z,79.30
2024-04-22T17:51:36.764Z,80.60
2024-04-22T17:54:04.099Z,81.80
2024-04-22T17:56:34.506Z,83.10
2024-04-22T17:59:07.860Z,82.90
2024-04-22T18:01:40.344Z,82.80
2024-04-22T18:04:07.495Z,82.80
2024-04-22T18:06:40.327Z,84.80
2024-04-22T18:09:07.614Z,84.00
2024-04-22T18:11:37.420Z,85.40
2024-04-22T18:14:13.744Z,91.00
2024-04-22T18:16:54.923Z,91.50
2024-04-22T18:19:22.250Z,91.20
2024-04-22T18:21:52.067Z,90.50
2024-04-22T18:24:19.169Z,87.20
2024-04-22T18:26:48.976Z,85.80
2024-04-22T18:29:16.126Z,84.90
2024-04-22T18:31:54.425Z,85.70
2024-04-22T18:34:24.376Z,89.40
2024-04-22T18:36:57.084Z,84.90
2024-04-22T18:39:27.041Z,83.20
2024-04-22T18:41:56.747Z,82.40
2024-04-22T18:44:27.092Z,82.20
2024-04-22T18:47:07.385Z,83.20
2024-04-22T18:49:37.692Z,84.50
2024-04-22T18:52:08.065Z,82.80
2024-04-22T18:54:44.395Z,80.80
2024-04-22T18:57:26.254Z,80.40
2024-04-22T18:59:56.469Z,79.40
2024-04-22T19:02:28.906Z,80.50
2024-04-22T19:04:58.958Z,81.80
2024-04-22T19:07:41.315Z,83.80
2024-04-22T19:10:14.936Z,90.60
2024-04-22T19:12:44.651Z,87.30
2024-04-22T19:15:11.731Z,85.60
2024-04-22T19:17:52.151Z,85.90
2024-04-22T19:20:22.448Z,85.90
2024-04-22T19:23:02.606Z,87.00
2024-04-22T19:25:41.773Z,86.00
2024-04-22T19:28:14.291Z,85.80
2024-04-22T19:30:43.837Z,87.20
2024-04-22T19:33:16.213Z,88.90
2024-04-22T19:35:55.339Z,90.90
2024-04-22T19:38:28.990Z,92.10
2024-04-22T19:40:58.882Z,89.10
2024-04-22T19:43:33.461Z,89.20
2024-04-22T19:46:06.473Z,88.80
2024-04-22T19:48:38.859Z,85.80
2024-04-22T19:51:08.541Z,86.10
2024-04-22T19:53:41.717Z,88.40
2024-04-22T19:56:09.654Z,85.30
2024-04-22T19:58:39.527Z,86.20
2024-04-22T20:01:12.780Z,91.90
2024-04-22T20:03:45.207Z,90.90
2024-04-22T20:06:21.445Z,86.60
2024-04-22T20:08:51.855Z,87.40
2024-04-22T20:11:21.782Z,85.40
2024-04-22T20:13:51.577Z,83.40
2024-04-22T20:16:24.143Z,86.80
2024-04-22T20:18:57.703Z,86.50
2024-04-22T20:21:25.034Z,85.10
2024-04-22T20:23:58.187Z,85.00
2024-04-22T20:26:25.318Z,86.20
2024-04-22T20:28:55.334Z,90.10
2024-04-22T20:31:25.316Z,91.00
2024-04-22T20:34:03.740Z,85.50
2024-04-22T20:36:33.955Z,86.40
2024-04-22T20:39:03.699Z,87.50
2024-04-22T20:41:40.731Z,87.50
2024-04-22T20:44:24.867Z,88.20
2024-04-22T20:46:52.026Z,88.90
2024-04-22T20:49:24.907Z,89.60
2024-04-22T20:51:52.082Z,90.20
2024-04-22T20:54:21.904Z,91.30
2024-04-22T20:56:48.980Z,90.30
2024-04-22T20:59:24.640Z,88.10
2024-04-22T21:01:54.267Z,87.90
2024-04-22T21:04:26.643Z,87.10
2024-04-22T21:06:53.739Z,87.50
2024-04-22T21:09:29.323Z,86.10
2024-04-22T21:12:03.707Z,88.00
2024-04-22T21:14:39.182Z,88.60
2024-04-22T21:17:11.875Z,91.50
2024-04-22T21:19:44.261Z,90.80
2024-04-22T21:22:11.376Z,89.90
2024-04-22T21:24:41.368Z,90.20
2024-04-22T21:27:08.962Z,89.40
2024-04-22T21:29:41.362Z,89.80
2024-04-22T21:32:11.449Z,88.10
2024-04-22T21:34:43.946Z,88.50
2024-04-22T21:37:11.116Z,88.30
2024-04-22T21:39:46.942Z,90.90
2024-04-22T21:42:14.023Z,91.30
2024-04-22T21:44:43.742Z,90.20
2024-04-22T21:47:14.893Z,90.30
2024-04-22T21:49:47.269Z,90.60
2024-04-22T21:52:14.387Z,90.20
2024-04-22T21:54:47.429Z,90.80
2024-04-22T21:57:52.170Z,90.40
2024-04-22T22:01:04.771Z,90.60
2024-04-22T22:04:12.955Z,93.30
2024-04-22T22:07:26.926Z,90.90
2024-04-22T22:09:56.738Z,90.60
2024-04-22T22:12:26.469Z,90.60
2024-04-22T22:14:59.224Z,90.70
2024-04-22T22:17:35.073Z,90.80
2024-04-22T22:20:06.040Z,92.30
2024-04-22T22:22:47.702Z,93.50
2024-04-22T22:25:21.690Z,91.30
2024-04-22T22:27:54.204Z,91.20
2024-04-22T22:30:21.348Z,90.80
2024-04-22T22:32:53.313Z,90.90
2024-04-22T22:35:20.342Z,90.40
2024-04-22T22:37:52.353Z,92.30
2024-04-22T22:40:27.996Z,92.80
2024-04-22T22:42:59.976Z,90.50
2024-04-22T22:45:27.138Z,90.30
2024-04-22T22:47:59.657Z,90.50
2024-04-22T22:50:29.950Z,90.60
2024-04-22T22:53:01.311Z,91.30
2024-04-22T22:55:31.162Z,93.50
2024-04-22T22:58:01.209Z,93.80
2024-04-22T23:00:40.656Z,90.90
2024-04-22T23:03:12.828Z,90.50
2024-04-22T23:05:43.037Z,90.60
2024-04-22T23:08:13.041Z,91.30
2024-04-22T23:10:46.042Z,91.10
2024-04-22T23:13:15.785Z,91.50
2024-04-22T23:15:45.679Z,94.70
2024-04-22T23:18:15.409Z,92.70
2024-04-22T23:20:42.470Z,91.90
2024-04-22T23:23:12.219Z,91.60
2024-04-22T23:25:39.374Z,91.90
2024-04-22T23:28:14.737Z,91.50
2024-04-22T23:30:51.338Z,91.70
2024-04-22T23:33:21.091Z,92.60
2024-04-22T23:35:53.194Z,94.00
2024-04-22T23:38:23.184Z,91.90
2024-04-22T23:40:50.279Z,92.00
2024-04-22T23:43:22.578Z,91.60
2024-04-22T23:45:49.696Z,91.90
2024-04-22T23:48:19.440Z,91.90
2024-04-22T23:50:46.624Z,93.70
2024-04-22T23:53:16.292Z,94.00
2024-04-22T23:55:46.318Z,92.90
2024-04-22T23:58:15.958Z,92.20
